createdAt,value
2022-09-10T00:01:17.133Z,14.88
2022-09-10T00:03:43.754Z,14.90
2022-09-10T00:06:11.220Z,14.93
2022-09-10T00:08:39.509Z,14.94
2022-09-10T00:11:09.792Z,14.98
2022-09-10T00:13:39.228Z,14.97
2022-09-10T00:16:10.148Z,14.96
2022-09-10T00:18:38.633Z,14.91
2022-09-10T00:21:09.038Z,14.91
2022-09-10T00:23:36.547Z,14.89
2022-09-10T00:26:19.087Z,14.89
2022-09-10T00:28:45.777Z,14.87
2022-09-10T00:31:13.415Z,14.89
2022-09-10T00:33:40.203Z,14.88
2022-09-10T00:36:37.230Z,14.89
2022-09-10T00:39:09.620Z,14.90
2022-09-10T00:41:38.523Z,14.91
2022-09-10T00:44:08.209Z,14.88
2022-09-10T00:46:50.888Z,14.93
2022-09-10T00:49:22.347Z,14.92
2022-09-10T00:51:52.565Z,14.93
2022-09-10T00:54:21.960Z,14.94
2022-09-10T00:56:49.797Z,14.96
2022-09-10T00:59:20.313Z,14.95
2022-09-10T01:01:49.322Z,14.91
2022-09-10T01:04:16.152Z,14.93
2022-09-10T01:06:45.750Z,14.92
2022-09-10T01:09:14.224Z,14.89
2022-09-10T01:12:09.430Z,14.90
2022-09-10T01:14:56.187Z,14.90
2022-09-10T01:17:33.981Z,14.88
2022-09-10T01:20:11.005Z,14.87
2022-09-10T01:23:17.996Z,14.84
2022-09-10T01:26:03.903Z,14.85
2022-09-10T01:28:45.506Z,14.78
2022-09-10T01:31:23.995Z,14.75
2022-09-10T01:34:02.220Z,14.71
2022-09-10T01:36:35.243Z,14.68
2022-09-10T01:39:02.624Z,14.64
2022-09-10T01:41:29.304Z,14.67
2022-09-10T01:43:57.072Z,14.72
2022-09-10T01:46:55.055Z,14.72
2022-09-10T01:49:32.362Z,14.75
2022-09-10T01:52:04.912Z,14.73
2022-09-10T01:54:45.581Z,14.71
2022-09-10T01:57:46.130Z,14.64
2022-09-10T02:00:16.016Z,14.55
2022-09-10T02:02:52.076Z,14.52
2022-09-10T02:05:22.181Z,14.41
2022-09-10T02:07:59.544Z,14.40
2022-09-10T02:10:26.596Z,14.43
2022-09-10T02:12:54.053Z,14.42
2022-09-10T02:15:41.274Z,14.40
2022-09-10T02:18:24.038Z,14.37
2022-09-10T02:20:55.743Z,14.31
2022-09-10T02:23:27.359Z,14.27
2022-09-10T02:25:54.176Z,14.24
2022-09-10T02:28:27.564Z,14.19
2022-09-10T02:30:55.038Z,14.20
2022-09-10T02:33:21.996Z,14.23
2022-09-10T02:35:49.772Z,14.27
2022-09-10T02:38:18.192Z,14.27
2022-09-10T02:40:49.074Z,14.25
2022-09-10T02:43:17.379Z,14.21
2022-09-10T02:45:44.669Z,14.19
2022-09-10T02:48:11.386Z,14.27
2022-09-10T02:50:38.613Z,14.29
2022-09-10T02:53:05.726Z,14.30
2022-09-10T02:55:32.714Z,14.35
2022-09-10T02:57:59.350Z,14.40
2022-09-10T03:00:26.059Z,14.39
2022-09-10T03:02:56.868Z,14.41
2022-09-10T03:05:27.918Z,14.43
2022-09-10T03:07:55.442Z,14.45
2022-09-10T03:10:22.151Z,14.44
2022-09-10T03:12:49.391Z,14.42
2022-09-10T03:15:18.017Z,14.41
2022-09-10T03:17:44.615Z,14.40
2022-09-10T03:20:11.243Z,14.40
2022-09-10T03:22:38.204Z,14.41
2022-09-10T03:25:06.296Z,14.40
2022-09-10T03:27:35.672Z,14.40
2022-09-10T03:30:03.169Z,14.42
2022-09-10T03:32:32.274Z,14.43
2022-09-10T03:35:00.041Z,14.43
2022-09-10T03:37:26.836Z,14.45
2022-09-10T03:39:53.509Z,14.52
2022-09-10T03:42:20.122Z,14.56
2022-09-10T03:44:46.667Z,14.57
2022-09-10T03:47:13.275Z,14.57
2022-09-10T03:49:39.984Z,14.54
2022-09-10T03:52:07.364Z,14.54
2022-09-10T03:54:37.314Z,14.53
2022-09-10T03:57:04.102Z,14.53
2022-09-10T03:59:31.957Z,14.49
2022-09-10T04:02:01.322Z,14.46
2022-09-10T04:04:27.914Z,14.50
2022-09-10T04:06:54.522Z,14.50
2022-09-10T04:09:21.256Z,14.54
2022-09-10T04:11:47.874Z,14.52
2022-09-10T04:14:15.603Z,14.47
2022-09-10T04:16:42.867Z,14.45
2022-09-10T04:19:13.194Z,14.44
2022-09-10T04:21:40.043Z,14.44
2022-09-10T04:24:09.936Z,14.46
2022-09-10T04:26:36.592Z,14.47
2022-09-10T04:29:04.224Z,14.47
2022-09-10T04:31:31.022Z,14.43
2022-09-10T04:34:03.202Z,14.41
2022-09-10T04:36:32.311Z,14.38
2022-09-10T04:38:59.868Z,14.36
2022-09-10T04:41:27.224Z,14.37
2022-09-10T04:43:53.982Z,14.38
2022-09-10T04:46:20.602Z,14.37
2022-09-10T04:48:50.411Z,14.38
2022-09-10T04:51:20.243Z,14.38
2022-09-10T04:53:48.725Z,14.40
2022-09-10T04:56:15.683Z,14.41
2022-09-10T04:58:44.116Z,14.43
2022-09-10T05:01:11.502Z,14.44
2022-09-10T05:03:38.350Z,14.44
2022-09-10T05:06:06.652Z,14.40
2022-09-10T05:08:34.083Z,14.38
2022-09-10T05:11:02.912Z,14.38
2022-09-10T05:13:33.420Z,14.36
2022-09-10T05:16:01.667Z,14.36
2022-09-10T05:18:30.111Z,14.33
2022-09-10T05:20:57.290Z,14.27
2022-09-10T05:23:24.250Z,14.21
2022-09-10T05:25:53.778Z,14.11
2022-09-10T05:28:21.942Z,14.06
2022-09-10T05:30:51.739Z,13.93
2022-09-10T05:33:22.068Z,13.92
2022-09-10T05:35:51.758Z,13.89
2022-09-10T05:38:19.040Z,13.89
2022-09-10T05:40:45.739Z,13.91
2022-09-10T05:43:12.999Z,13.94
2022-09-10T05:45:39.716Z,13.86
2022-09-10T05:48:07.151Z,13.93
2022-09-10T05:50:34.228Z,13.96
2022-09-10T05:53:01.206Z,14.00
2022-09-10T05:55:31.262Z,14.03
2022-09-10T05:57:58.562Z,14.11
2022-09-10T06:00:25.546Z,14.13
2022-09-10T06:03:00.589Z,14.18
2022-09-10T06:05:31.798Z,14.20
2022-09-10T06:08:00.100Z,14.22
2022-09-10T06:10:26.781Z,14.23
2022-09-10T06:12:53.454Z,14.26
2022-09-10T06:15:21.319Z,14.31
2022-09-10T06:17:50.054Z,14.36
2022-09-10T06:20:17.504Z,14.44
2022-09-10T06:22:45.749Z,14.52
2022-09-10T06:25:12.795Z,14.56
2022-09-10T06:27:40.862Z,14.63
2022-09-10T06:30:08.507Z,14.63
2022-09-10T06:32:39.269Z,14.63
2022-09-10T06:35:09.409Z,14.64
2022-09-10T06:37:37.097Z,14.67
2022-09-10T06:40:07.108Z,14.72
2022-09-10T06:42:34.458Z,14.77
2022-09-10T06:45:12.928Z,14.76
2022-09-10T06:48:37.230Z,14.78
2022-09-10T06:50:55.283Z,14.80
2022-09-10T06:53:28.804Z,14.82
2022-09-10T06:55:56.363Z,14.84
2022-09-10T06:58:24.667Z,14.86
2022-09-10T07:00:53.175Z,14.88
2022-09-10T07:03:21.968Z,14.94
2022-09-10T07:05:50.976Z,14.97
2022-09-10T07:08:18.261Z,15.00
2022-09-10T07:10:50.441Z,15.07
2022-09-10T07:13:17.427Z,15.12
2022-09-10T07:15:47.450Z,15.14
2022-09-10T07:18:15.574Z,15.15
2022-09-10T07:20:43.448Z,15.18
2022-09-10T07:23:14.462Z,15.21
2022-09-10T07:25:41.917Z,15.24
2022-09-10T07:28:18.131Z,15.26
2022-09-10T07:30:47.534Z,15.29
2022-09-10T07:33:15.332Z,15.30
2022-09-10T07:35:43.739Z,15.35
2022-09-10T07:38:14.129Z,15.35
2022-09-10T07:40:43.720Z,15.35
2022-09-10T07:43:10.558Z,15.36
2022-09-10T07:45:37.217Z,15.34
2022-09-10T07:48:04.998Z,15.36
2022-09-10T07:50:36.196Z,15.41
2022-09-10T07:53:02.995Z,15.40
2022-09-10T07:55:31.572Z,15.44
2022-09-10T07:58:00.214Z,15.51
2022-09-10T08:00:29.486Z,15.51
2022-09-10T08:02:59.759Z,15.50
2022-09-10T08:05:28.800Z,15.55
2022-09-10T08:07:55.494Z,15.59
2022-09-10T08:10:25.227Z,15.61
2022-09-10T08:12:52.224Z,15.65
2022-09-10T08:15:19.013Z,15.68
2022-09-10T08:17:46.160Z,15.69
2022-09-10T08:20:13.575Z,15.68
2022-09-10T08:22:43.330Z,15.68
2022-09-10T08:25:10.832Z,15.69
2022-09-10T08:27:37.435Z,15.67
2022-09-10T08:30:07.782Z,15.71
2022-09-10T08:32:36.024Z,15.65
2022-09-10T08:35:05.035Z,15.76
2022-09-10T08:37:33.409Z,15.69
2022-09-10T08:40:00.219Z,15.71
2022-09-10T08:42:35.631Z,15.73
2022-09-10T08:45:14.785Z,15.75
2022-09-10T08:47:53.535Z,15.76
2022-09-10T08:50:41.592Z,15.78
2022-09-10T08:53:23.096Z,15.81
2022-09-10T08:55:50.752Z,15.82
2022-09-10T08:58:25.248Z,15.87
2022-09-10T09:00:57.723Z,15.85
2022-09-10T09:03:35.790Z,15.85
2022-09-10T09:06:05.698Z,15.86
2022-09-10T09:08:48.515Z,15.86
2022-09-10T09:11:29.334Z,15.83
2022-09-10T09:14:04.458Z,15.81
2022-09-10T09:16:46.120Z,15.72
2022-09-10T09:19:39.843Z,15.70
2022-09-10T09:22:17.256Z,15.74
2022-09-10T09:25:30.404Z,15.90
2022-09-10T09:27:57.655Z,16.16
2022-09-10T09:30:49.351Z,16.51
2022-09-10T09:33:22.565Z,16.75
2022-09-10T09:36:03.950Z,16.95
2022-09-10T09:38:38.714Z,17.08
2022-09-10T09:41:42.345Z,17.12
2022-09-10T09:44:28.753Z,17.33
2022-09-10T09:46:56.434Z,17.50
2022-09-10T09:49:25.480Z,17.56
2022-09-10T09:51:55.136Z,17.62
2022-09-10T09:55:03.088Z,17.66
2022-09-10T09:57:20.560Z,17.91
2022-09-10T09:59:49.519Z,18.06
2022-09-10T10:02:19.967Z,17.97
2022-09-10T10:05:07.575Z,17.94
2022-09-10T10:07:36.287Z,17.86
2022-09-10T10:10:07.517Z,17.82
2022-09-10T10:12:37.010Z,17.92
2022-09-10T10:15:03.785Z,17.99
2022-09-10T10:17:38.595Z,18.14
2022-09-10T10:20:13.951Z,18.19
2022-09-10T10:22:48.524Z,18.13
2022-09-10T10:25:34.159Z,18.20
2022-09-10T10:28:00.848Z,18.19
2022-09-10T10:30:30.063Z,18.28
2022-09-10T10:33:01.959Z,18.35
2022-09-10T10:35:33.691Z,18.54
2022-09-10T10:38:06.381Z,18.80
2022-09-10T10:41:00.748Z,18.85
2022-09-10T10:43:42.399Z,18.83
2022-09-10T10:46:28.165Z,18.57
2022-09-10T10:49:07.342Z,18.45
2022-09-10T10:51:39.649Z,18.38
2022-09-10T10:54:12.311Z,18.50
2022-09-10T10:56:42.750Z,18.60
2022-09-10T10:59:46.121Z,18.77
2022-09-10T11:02:50.527Z,19.00
2022-09-10T11:05:38.572Z,18.97
2022-09-10T11:08:11.108Z,18.75
2022-09-10T11:11:14.764Z,18.68
2022-09-10T11:13:44.349Z,18.66
2022-09-10T11:16:15.160Z,18.81
2022-09-10T11:19:19.760Z,19.02
2022-09-10T11:22:14.595Z,19.59
2022-09-10T11:24:50.217Z,19.92
2022-09-10T11:27:33.301Z,19.77
2022-09-10T11:30:05.269Z,19.65
2022-09-10T11:32:53.058Z,19.56
2022-09-10T11:35:33.984Z,19.64
2022-09-10T11:38:55.991Z,19.63
2022-09-10T11:41:28.630Z,19.60
2022-09-10T11:44:22.505Z,19.47
2022-09-10T11:47:14.386Z,19.19
2022-09-10T11:49:55.258Z,18.87
2022-09-10T11:52:23.412Z,18.50
2022-09-10T11:54:50.050Z,18.12
2022-09-10T11:57:31.585Z,17.81
2022-09-10T12:00:15.693Z,17.59
2022-09-10T12:02:54.508Z,17.44
2022-09-10T12:05:55.093Z,17.34
2022-09-10T12:09:20.542Z,17.34
2022-09-10T12:12:22.362Z,17.41
2022-09-10T12:14:49.036Z,17.37
2022-09-10T12:17:28.084Z,17.32
2022-09-10T12:19:57.227Z,17.20
2022-09-10T12:22:36.926Z,17.07
2022-09-10T12:25:24.088Z,16.98
2022-09-10T12:27:52.936Z,16.80
2022-09-10T12:30:27.556Z,16.57
2022-09-10T12:32:55.648Z,16.72
2022-09-10T12:35:31.267Z,17.47
2022-09-10T12:38:35.752Z,18.27
2022-09-10T12:41:04.407Z,18.91
2022-09-10T12:43:43.354Z,19.45
2022-09-10T12:46:09.930Z,19.77
2022-09-10T12:48:40.099Z,20.01
2022-09-10T12:51:46.265Z,20.22
2022-09-10T12:54:31.656Z,19.84
2022-09-10T12:57:20.298Z,19.43
2022-09-10T13:00:12.643Z,18.95
2022-09-10T13:02:52.615Z,18.66
2022-09-10T13:05:39.852Z,18.47
2022-09-10T13:08:15.366Z,18.37
2022-09-10T13:11:15.782Z,18.81
2022-09-10T13:14:02.039Z,19.50
2022-09-10T13:16:28.634Z,19.88
2022-09-10T13:19:13.367Z,20.13
2022-09-10T13:21:42.774Z,20.21
2022-09-10T13:24:34.285Z,20.50
2022-09-10T13:27:12.775Z,20.90
2022-09-10T13:29:49.773Z,20.82
2022-09-10T13:32:31.608Z,20.19
2022-09-10T13:35:33.273Z,19.57
2022-09-10T13:38:29.929Z,19.05
2022-09-10T13:41:17.893Z,18.67
2022-09-10T13:44:22.236Z,18.41
2022-09-10T13:46:55.280Z,18.39
2022-09-10T13:49:41.784Z,18.26
2022-09-10T13:52:13.771Z,18.48
2022-09-10T13:54:47.322Z,19.24
2022-09-10T13:57:43.638Z,20.13
2022-09-10T14:00:13.515Z,20.66
2022-09-10T14:03:01.254Z,20.56
2022-09-10T14:05:43.475Z,20.12
2022-09-10T14:08:18.579Z,19.60
2022-09-10T14:10:50.274Z,19.21
2022-09-10T14:13:27.791Z,18.98
2022-09-10T14:15:58.628Z,18.81
2022-09-10T14:18:32.014Z,18.64
2022-09-10T14:21:00.206Z,18.55
2022-09-10T14:23:29.528Z,18.47
2022-09-10T14:26:23.612Z,18.34
2022-09-10T14:28:58.857Z,18.27
2022-09-10T14:31:25.448Z,18.14
2022-09-10T14:33:55.922Z,18.07
2022-09-10T14:36:33.496Z,17.98
2022-09-10T14:39:17.908Z,17.87
2022-09-10T14:41:45.443Z,17.81
2022-09-10T14:44:22.266Z,17.78
2022-09-10T14:46:54.190Z,17.75
2022-09-10T14:49:32.266Z,17.67
2022-09-10T14:52:00.165Z,17.65
2022-09-10T14:54:27.858Z,17.67
2022-09-10T14:56:57.332Z,17.72
2022-09-10T14:59:26.686Z,17.76
2022-09-10T15:01:53.345Z,17.82
2022-09-10T15:04:23.686Z,17.91
2022-09-10T15:06:58.258Z,17.99
2022-09-10T15:09:26.345Z,18.15
2022-09-10T15:11:54.993Z,18.18
2022-09-10T15:14:21.929Z,18.14
2022-09-10T15:16:54.158Z,18.22
2022-09-10T15:19:22.097Z,18.30
2022-09-10T15:21:49.409Z,18.50
2022-09-10T15:24:18.872Z,18.54
2022-09-10T15:26:46.292Z,18.42
2022-09-10T15:29:13.105Z,18.26
2022-09-10T15:31:40.317Z,18.20
2022-09-10T15:34:08.374Z,18.21
2022-09-10T15:36:37.097Z,18.22
2022-09-10T15:39:05.241Z,18.26
2022-09-10T15:41:32.149Z,18.25
2022-09-10T15:43:59.339Z,18.26
2022-09-10T15:46:26.005Z,18.27
2022-09-10T15:48:53.417Z,18.22
2022-09-10T15:51:23.038Z,18.24
2022-09-10T15:53:52.270Z,18.23
2022-09-10T15:56:20.849Z,18.21
2022-09-10T15:58:49.032Z,18.15
2022-09-10T16:01:16.288Z,18.05
2022-09-10T16:03:48.614Z,18.01
2022-09-10T16:06:15.837Z,17.94
2022-09-10T16:08:42.495Z,17.86
2022-09-10T16:11:11.839Z,17.74
2022-09-10T16:13:39.738Z,17.67
2022-09-10T16:16:12.048Z,17.66
2022-09-10T16:18:38.967Z,17.73
2022-09-10T16:21:15.685Z,17.83
2022-09-10T16:23:43.091Z,17.96
2022-09-10T16:26:15.818Z,17.97
2022-09-10T16:28:56.479Z,17.99
2022-09-10T16:31:39.228Z,17.97
2022-09-10T16:34:08.746Z,17.85
2022-09-10T16:36:39.215Z,17.91
2022-09-10T16:39:12.109Z,18.09
2022-09-10T16:41:43.871Z,18.18
2022-09-10T16:44:11.704Z,18.12
2022-09-10T16:46:39.157Z,17.97
2022-09-10T16:49:06.212Z,17.85
2022-09-10T16:51:35.162Z,17.73
2022-09-10T16:54:04.816Z,17.56
2022-09-10T16:56:35.807Z,17.41
2022-09-10T16:59:02.934Z,17.32
2022-09-10T17:01:31.220Z,17.21
2022-09-10T17:03:57.902Z,17.14
2022-09-10T17:06:28.850Z,17.08
2022-09-10T17:08:57.768Z,16.99
2022-09-10T17:11:26.454Z,16.98
2022-09-10T17:13:54.281Z,16.95
2022-09-10T17:16:20.855Z,16.92
2022-09-10T17:18:54.309Z,16.85
2022-09-10T17:21:20.885Z,16.76
2022-09-10T17:23:47.464Z,16.70
2022-09-10T17:26:14.084Z,16.63
2022-09-10T17:28:40.956Z,16.57
2022-09-10T17:31:07.570Z,16.49
2022-09-10T17:33:34.126Z,16.41
2022-09-10T17:36:03.635Z,16.35
2022-09-10T17:38:33.205Z,16.28
2022-09-10T17:41:04.420Z,16.21
2022-09-10T17:43:34.314Z,16.10
2022-09-10T17:46:09.402Z,16.00
2022-09-10T17:48:36.597Z,15.88
2022-09-10T17:51:03.746Z,15.81
2022-09-10T17:53:30.479Z,15.71
2022-09-10T17:56:02.838Z,15.65
2022-09-10T17:58:32.570Z,15.58
2022-09-10T18:01:01.661Z,15.53
2022-09-10T18:03:28.938Z,15.43
2022-09-10T18:05:56.942Z,15.43
2022-09-10T18:08:23.516Z,15.36
2022-09-10T18:10:50.883Z,15.35
2022-09-10T18:13:19.561Z,15.30
2022-09-10T18:15:46.417Z,15.31
2022-09-10T18:18:13.025Z,15.27
2022-09-10T18:20:39.599Z,15.25
2022-09-10T18:23:06.815Z,15.23
2022-09-10T18:25:33.384Z,15.19
2022-09-10T18:28:01.511Z,15.13
2022-09-10T18:30:28.956Z,15.06
2022-09-10T18:32:55.623Z,15.06
2022-09-10T18:35:23.063Z,15.05
2022-09-10T18:37:52.503Z,15.00
2022-09-10T18:40:19.686Z,14.99
2022-09-10T18:42:47.842Z,14.97
2022-09-10T18:45:14.648Z,14.90
2022-09-10T18:47:45.002Z,14.88
2022-09-10T18:50:13.243Z,14.89
2022-09-10T18:52:40.140Z,14.85
2022-09-10T18:55:07.251Z,14.81
2022-09-10T18:57:33.838Z,14.81
2022-09-10T19:00:00.493Z,14.77
2022-09-10T19:02:27.192Z,14.77
2022-09-10T19:05:10.765Z,14.75
2022-09-10T19:07:38.433Z,14.71
2022-09-10T19:10:07.107Z,14.68
2022-09-10T19:12:34.274Z,14.65
2022-09-10T19:15:00.885Z,14.62
2022-09-10T19:17:27.472Z,14.61
2022-09-10T19:19:54.018Z,14.60
2022-09-10T19:22:20.576Z,14.56
2022-09-10T19:24:55.799Z,14.53
2022-09-10T19:27:23.936Z,14.55
2022-09-10T19:29:50.718Z,14.55
2022-09-10T19:32:19.706Z,14.53
2022-09-10T19:34:49.400Z,14.51
2022-09-10T19:37:15.964Z,14.52
2022-09-10T19:39:43.010Z,14.48
2022-09-10T19:42:09.925Z,14.48
2022-09-10T19:44:36.720Z,14.46
2022-09-10T19:47:04.149Z,14.45
2022-09-10T19:49:31.297Z,14.46
2022-09-10T19:51:57.842Z,14.47
2022-09-10T19:54:25.722Z,14.44
2022-09-10T19:56:52.334Z,14.43
2022-09-10T19:59:18.905Z,14.41
2022-09-10T20:01:46.005Z,14.39
2022-09-10T20:04:14.201Z,14.38
2022-09-10T20:06:42.682Z,14.35
2022-09-10T20:09:12.346Z,14.34
2022-09-10T20:11:39.018Z,14.34
2022-09-10T20:14:09.058Z,14.34
2022-09-10T20:16:42.334Z,14.33
2022-09-10T20:19:11.276Z,14.31
2022-09-10T20:21:38.106Z,14.28
2022-09-10T20:24:06.785Z,14.27
2022-09-10T20:26:35.602Z,14.28
2022-09-10T20:29:05.210Z,14.28
2022-09-10T20:31:35.471Z,14.31
2022-09-10T20:34:05.254Z,14.33
2022-09-10T20:36:34.410Z,14.36
2022-09-10T20:39:01.050Z,14.37
2022-09-10T20:41:30.382Z,14.38
2022-09-10T20:43:59.273Z,14.42
2022-09-10T20:46:27.642Z,14.45
2022-09-10T20:48:55.333Z,14.49
2022-09-10T20:51:21.902Z,14.51
2022-09-10T20:53:48.516Z,14.52
2022-09-10T20:56:18.153Z,14.54
2022-09-10T20:58:46.276Z,14.54
2022-09-10T21:01:19.028Z,14.54
2022-09-10T21:03:47.860Z,14.56
2022-09-10T21:06:17.782Z,14.58
2022-09-10T21:08:44.497Z,14.56
2022-09-10T21:11:13.500Z,14.60
2022-09-10T21:13:48.122Z,14.62
2022-09-10T21:16:18.007Z,14.60
2022-09-10T21:18:54.346Z,14.58
2022-09-10T21:21:25.647Z,14.59
2022-09-10T21:23:58.036Z,14.58
2022-09-10T21:26:27.346Z,14.60
2022-09-10T21:28:59.493Z,14.60
2022-09-10T21:31:27.350Z,14.60
2022-09-10T21:34:00.708Z,14.55
2022-09-10T21:36:30.351Z,14.58
2022-09-10T21:38:59.521Z,14.56
2022-09-10T21:41:33.161Z,14.53
2022-09-10T21:44:01.406Z,14.50
2022-09-10T21:46:28.498Z,14.50
2022-09-10T21:48:55.678Z,14.51
2022-09-10T21:51:23.347Z,14.48
2022-09-10T21:53:54.978Z,14.51
2022-09-10T21:56:22.850Z,14.51
2022-09-10T21:58:49.744Z,14.47
2022-09-10T22:01:22.283Z,14.52
2022-09-10T22:03:51.051Z,14.53
2022-09-10T22:06:20.663Z,14.52
2022-09-10T22:08:49.530Z,14.51
2022-09-10T22:11:24.517Z,14.51
2022-09-10T22:13:55.999Z,14.52
2022-09-10T22:16:23.062Z,14.49
2022-09-10T22:18:50.735Z,14.48
2022-09-10T22:21:18.687Z,14.42
2022-09-10T22:23:45.254Z,14.44
2022-09-10T22:26:16.709Z,14.43
2022-09-10T22:28:44.521Z,14.42
2022-09-10T22:31:15.733Z,14.43
2022-09-10T22:33:44.662Z,14.40
2022-09-10T22:36:16.830Z,14.41
2022-09-10T22:38:43.744Z,14.40
2022-09-10T22:41:10.561Z,14.38
2022-09-10T22:43:38.556Z,14.39
2022-09-10T22:46:07.234Z,14.39
2022-09-10T22:48:37.672Z,14.40
2022-09-10T22:51:09.190Z,14.40
2022-09-10T22:53:35.731Z,14.41
2022-09-10T22:56:02.567Z,14.41
2022-09-10T22:58:29.312Z,14.39
2022-09-10T23:00:56.319Z,14.38
2022-09-10T23:03:22.999Z,14.39
2022-09-10T23:05:49.760Z,14.36
2022-09-10T23:08:17.068Z,14.36
2022-09-10T23:10:43.741Z,14.36
2022-09-10T23:13:10.402Z,14.34
2022-09-10T23:15:36.934Z,14.34
2022-09-10T23:18:03.504Z,14.34
2022-09-10T23:20:30.040Z,14.35
2022-09-10T23:22:56.586Z,14.34
2022-09-10T23:25:23.119Z,14.35
2022-09-10T23:27:51.232Z,14.32
2022-09-10T23:30:18.142Z,14.31
2022-09-10T23:32:45.183Z,14.29
2022-09-10T23:35:11.906Z,14.28
2022-09-10T23:37:38.660Z,14.22
2022-09-10T23:40:06.610Z,14.22
2022-09-10T23:42:33.321Z,14.18
2022-09-10T23:44:59.905Z,14.12
2022-09-10T23:47:27.010Z,14.07
2022-09-10T23:49:53.572Z,14.03
2022-09-10T23:52:20.560Z,14.02
2022-09-10T23:54:47.430Z,14.00
2022-09-10T23:57:14.074Z,13.94
2022-09-10T23:59:41.043Z,13.94
